sensor_id;sensor_type;location;lat;lon;timestamp;P1;durP1;ratioP1;P2;durP2;ratioP2
25962;SDS011;13760;52.588;13.406;2023-05-15T00:00:09;18.33;;;14.15;;
25962;SDS011;13760;52.588;13.406;2023-05-15T00:02:36;21.25;;;14.68;;
25962;SDS011;13760;52.588;13.406;2023-05-15T00:05:02;17.95;;;14.05;;
25962;SDS011;13760;52.588;13.406;2023-05-15T00:07:29;18.50;;;14.93;;
25962;SDS011;13760;52.588;13.406;2023-05-15T00:09:55;20.25;;;13.63;;
25962;SDS011;13760;52.588;13.406;2023-05-15T00:12:20;20.73;;;14.13;;
25962;SDS011;13760;52.588;13.406;2023-05-15T00:14:46;18.23;;;14.52;;
25962;SDS011;13760;52.588;13.406;2023-05-15T00:17:11;16.70;;;14.52;;
25962;SDS011;13760;52.588;13.406;2023-05-15T00:19:37;17.75;;;14.15;;
25962;SDS011;13760;52.588;13.406;2023-05-15T00:22:02;18.60;;;15.00;;
25962;SDS011;13760;52.588;13.406;2023-05-15T00:24:28;21.33;;;14.43;;
25962;SDS011;13760;52.588;13.406;2023-05-15T00:26:54;20.15;;;14.07;;
25962;SDS011;13760;52.588;13.406;2023-05-15T00:29:19;20.35;;;14.88;;
25962;SDS011;13760;52.588;13.406;2023-05-15T00:31:45;18.33;;;14.82;;
25962;SDS011;13760;52.588;13.406;2023-05-15T00:34:10;18.00;;;14.57;;
25962;SDS011;13760;52.588;13.406;2023-05-15T00:36:36;19.13;;;14.98;;
25962;SDS011;13760;52.588;13.406;2023-05-15T00:39:01;18.00;;;14.00;;
25962;SDS011;13760;52.588;13.406;2023-05-15T00:41:27;16.85;;;14.32;;
25962;SDS011;13760;52.588;13.406;2023-05-15T00:43:56;20.75;;;15.18;;
25962;SDS011;13760;52.588;13.406;2023-05-15T00:46:22;21.20;;;14.73;;
25962;SDS011;13760;52.588;13.406;2023-05-15T00:48:49;19.58;;;14.80;;
25962;SDS011;13760;52.588;13.406;2023-05-15T00:51:15;18.20;;;14.70;;
25962;SDS011;13760;52.588;13.406;2023-05-15T00:53:41;19.02;;;14.73;;
25962;SDS011;13760;52.588;13.406;2023-05-15T00:56:07;20.77;;;15.38;;
25962;SDS011;13760;52.588;13.406;2023-05-15T00:58:34;16.30;;;14.57;;
25962;SDS011;13760;52.588;13.406;2023-05-15T01:01:02;17.70;;;14.88;;
25962;SDS011;13760;52.588;13.406;2023-05-15T01:03:27;18.70;;;14.85;;
25962;SDS011;13760;52.588;13.406;2023-05-15T01:05:53;19.73;;;14.88;;
25962;SDS011;13760;52.588;13.406;2023-05-15T01:08:20;16.30;;;14.60;;
25962;SDS011;13760;52.588;13.406;2023-05-15T01:11:01;18.92;;;14.43;;
25962;SDS011;13760;52.588;13.406;2023-05-15T01:13:29;16.73;;;13.82;;
25962;SDS011;13760;52.588;13.406;2023-05-15T01:15:54;20.75;;;15.38;;
25962;SDS011;13760;52.588;13.406;2023-05-15T01:18:20;19.50;;;14.27;;
25962;SDS011;13760;52.588;13.406;2023-05-15T01:20:48;20.88;;;15.15;;
25962;SDS011;13760;52.588;13.406;2023-05-15T01:26:13;18.63;;;14.98;;
25962;SDS011;13760;52.588;13.406;2023-05-15T01:28:57;20.25;;;15.05;;
25962;SDS011;13760;52.588;13.406;2023-05-15T01:31:30;17.90;;;14.98;;
25962;SDS011;13760;52.588;13.406;2023-05-15T01:33:58;18.88;;;14.20;;
25962;SDS011;13760;52.588;13.406;2023-05-15T01:36:42;19.02;;;14.68;;
25962;SDS011;13760;52.588;13.406;2023-05-15T01:39:14;18.48;;;14.65;;
25962;SDS011;13760;52.588;13.406;2023-05-15T01:41:44;17.65;;;14.65;;
25962;SDS011;13760;52.588;13.406;2023-05-15T01:44:17;16.50;;;14.45;;
25962;SDS011;13760;52.588;13.406;2023-05-15T01:46:48;18.37;;;13.63;;
25962;SDS011;13760;52.588;13.406;2023-05-15T01:49:16;17.52;;;14.68;;
25962;SDS011;13760;52.588;13.406;2023-05-15T01:51:43;17.27;;;14.80;;
25962;SDS011;13760;52.588;13.406;2023-05-15T01:54:13;16.63;;;13.77;;
25962;SDS011;13760;52.588;13.406;2023-05-15T01:56:39;17.92;;;15.10;;
25962;SDS011;13760;52.588;13.406;2023-05-15T01:59:09;17.83;;;14.55;;
25962;SDS011;13760;52.588;13.406;2023-05-15T02:01:37;18.67;;;14.43;;
25962;SDS011;13760;52.588;13.406;2023-05-15T02:04:04;20.45;;;15.73;;
25962;SDS011;13760;52.588;13.406;2023-05-15T02:06:30;19.48;;;15.25;;
25962;SDS011;13760;52.588;13.406;2023-05-15T02:08:57;16.65;;;14.88;;
25962;SDS011;13760;52.588;13.406;2023-05-15T02:11:26;19.50;;;15.73;;
25962;SDS011;13760;52.588;13.406;2023-05-15T02:13:52;19.23;;;15.43;;
25962;SDS011;13760;52.588;13.406;2023-05-15T02:16:20;18.45;;;16.25;;
25962;SDS011;13760;52.588;13.406;2023-05-15T02:18:46;20.50;;;15.48;;
25962;SDS011;13760;52.588;13.406;2023-05-15T02:21:12;21.02;;;14.57;;
25962;SDS011;13760;52.588;13.406;2023-05-15T02:23:38;18.02;;;15.13;;
25962;SDS011;13760;52.588;13.406;2023-05-15T02:29:01;20.15;;;14.88;;
25962;SDS011;13760;52.588;13.406;2023-05-15T02:37:16;19.40;;;14.52;;
25962;SDS011;13760;52.588;13.406;2023-05-15T02:39:46;17.45;;;14.70;;
25962;SDS011;13760;52.588;13.406;2023-05-15T02:44:43;19.10;;;15.32;;
25962;SDS011;13760;52.588;13.406;2023-05-15T02:47:10;17.92;;;14.93;;
25962;SDS011;13760;52.588;13.406;2023-05-15T02:49:36;19.70;;;15.52;;
25962;SDS011;13760;52.588;13.406;2023-05-15T02:52:03;17.48;;;15.20;;
25962;SDS011;13760;52.588;13.406;2023-05-15T02:54:29;22.17;;;15.65;;
25962;SDS011;13760;52.588;13.406;2023-05-15T02:56:54;16.73;;;14.90;;
25962;SDS011;13760;52.588;13.406;2023-05-15T02:59:20;17.13;;;15.00;;
25962;SDS011;13760;52.588;13.406;2023-05-15T03:01:46;19.02;;;15.20;;
25962;SDS011;13760;52.588;13.406;2023-05-15T03:04:13;18.70;;;14.90;;
25962;SDS011;13760;52.588;13.406;2023-05-15T03:06:38;19.33;;;15.23;;
25962;SDS011;13760;52.588;13.406;2023-05-15T03:09:04;17.80;;;15.57;;
25962;SDS011;13760;52.588;13.406;2023-05-15T03:11:30;16.35;;;14.38;;
25962;SDS011;13760;52.588;13.406;2023-05-15T03:13:55;21.85;;;14.88;;
25962;SDS011;13760;52.588;13.406;2023-05-15T03:16:21;18.98;;;13.98;;
25962;SDS011;13760;52.588;13.406;2023-05-15T03:18:46;17.17;;;15.15;;
25962;SDS011;13760;52.588;13.406;2023-05-15T03:21:12;18.67;;;13.90;;
25962;SDS011;13760;52.588;13.406;2023-05-15T03:23:38;17.35;;;15.05;;
25962;SDS011;13760;52.588;13.406;2023-05-15T03:26:03;16.10;;;14.40;;
25962;SDS011;13760;52.588;13.406;2023-05-15T03:28:29;15.70;;;13.98;;
25962;SDS011;13760;52.588;13.406;2023-05-15T03:30:55;20.25;;;14.20;;
25962;SDS011;13760;52.588;13.406;2023-05-15T03:33:20;16.90;;;14.73;;
25962;SDS011;13760;52.588;13.406;2023-05-15T03:35:46;15.13;;;13.52;;
25962;SDS011;13760;52.588;13.406;2023-05-15T03:38:12;18.70;;;14.55;;
25962;SDS011;13760;52.588;13.406;2023-05-15T03:40:38;18.52;;;14.50;;
25962;SDS011;13760;52.588;13.406;2023-05-15T03:43:03;19.02;;;14.52;;
25962;SDS011;13760;52.588;13.406;2023-05-15T03:45:30;16.80;;;14.25;;
25962;SDS011;13760;52.588;13.406;2023-05-15T03:47:57;17.25;;;14.35;;
25962;SDS011;13760;52.588;13.406;2023-05-15T03:50:23;18.90;;;14.82;;
25962;SDS011;13760;52.588;13.406;2023-05-15T03:52:48;19.38;;;15.23;;
25962;SDS011;13760;52.588;13.406;2023-05-15T03:55:14;19.67;;;15.05;;
25962;SDS011;13760;52.588;13.406;2023-05-15T03:57:40;21.48;;;15.18;;
25962;SDS011;13760;52.588;13.406;2023-05-15T04:00:06;18.67;;;15.30;;
25962;SDS011;13760;52.588;13.406;2023-05-15T04:02:35;17.33;;;14.95;;
25962;SDS011;13760;52.588;13.406;2023-05-15T04:05:01;17.33;;;15.52;;
25962;SDS011;13760;52.588;13.406;2023-05-15T04:07:28;16.42;;;14.40;;
25962;SDS011;13760;52.588;13.406;2023-05-15T04:09:53;17.73;;;14.70;;
25962;SDS011;13760;52.588;13.406;2023-05-15T04:12:19;17.30;;;15.00;;
25962;SDS011;13760;52.588;13.406;2023-05-15T04:14:44;23.02;;;15.85;;
25962;SDS011;13760;52.588;13.406;2023-05-15T04:17:10;18.33;;;15.13;;
25962;SDS011;13760;52.588;13.406;2023-05-15T04:19:36;17.70;;;15.90;;
25962;SDS011;13760;52.588;13.406;2023-05-15T04:22:07;18.50;;;15.95;;
25962;SDS011;13760;52.588;13.406;2023-05-15T04:24:33;22.60;;;15.82;;
25962;SDS011;13760;52.588;13.406;2023-05-15T04:26:58;20.63;;;15.00;;
25962;SDS011;13760;52.588;13.406;2023-05-15T04:29:24;16.77;;;14.95;;
25962;SDS011;13760;52.588;13.406;2023-05-15T04:31:49;19.73;;;14.85;;
25962;SDS011;13760;52.588;13.406;2023-05-15T04:34:15;20.55;;;14.63;;
25962;SDS011;13760;52.588;13.406;2023-05-15T04:36:40;18.95;;;15.82;;
25962;SDS011;13760;52.588;13.406;2023-05-15T04:39:06;21.55;;;14.40;;
25962;SDS011;13760;52.588;13.406;2023-05-15T04:41:32;21.00;;;15.07;;
25962;SDS011;13760;52.588;13.406;2023-05-15T04:43:57;19.75;;;14.07;;
25962;SDS011;13760;52.588;13.406;2023-05-15T04:46:23;17.98;;;14.18;;
25962;SDS011;13760;52.588;13.406;2023-05-15T04:48:49;18.63;;;14.77;;
25962;SDS011;13760;52.588;13.406;2023-05-15T04:51:15;22.48;;;14.52;;
25962;SDS011;13760;52.588;13.406;2023-05-15T04:53:40;18.83;;;14.98;;
25962;SDS011;13760;52.588;13.406;2023-05-15T04:56:06;18.98;;;15.07;;
25962;SDS011;13760;52.588;13.406;2023-05-15T04:58:31;19.92;;;14.25;;
25962;SDS011;13760;52.588;13.406;2023-05-15T05:00:57;20.00;;;14.68;;
25962;SDS011;13760;52.588;13.406;2023-05-15T05:03:22;21.15;;;15.43;;
25962;SDS011;13760;52.588;13.406;2023-05-15T05:05:48;19.98;;;14.90;;
25962;SDS011;13760;52.588;13.406;2023-05-15T05:08:13;26.73;;;15.45;;
25962;SDS011;13760;52.588;13.406;2023-05-15T05:10:39;22.02;;;14.60;;
25962;SDS011;13760;52.588;13.406;2023-05-15T05:13:04;21.33;;;15.23;;
25962;SDS011;13760;52.588;13.406;2023-05-15T05:15:30;18.75;;;14.23;;
25962;SDS011;13760;52.588;13.406;2023-05-15T05:17:55;20.63;;;14.52;;
25962;SDS011;13760;52.588;13.406;2023-05-15T05:20:21;21.23;;;13.80;;
25962;SDS011;13760;52.588;13.406;2023-05-15T05:22:46;16.48;;;13.93;;
25962;SDS011;13760;52.588;13.406;2023-05-15T05:25:12;18.42;;;13.55;;
25962;SDS011;13760;52.588;13.406;2023-05-15T05:27:38;18.73;;;13.20;;
25962;SDS011;13760;52.588;13.406;2023-05-15T05:30:03;18.00;;;13.55;;
25962;SDS011;13760;52.588;13.406;2023-05-15T05:32:29;18.27;;;14.25;;
25962;SDS011;13760;52.588;13.406;2023-05-15T05:34:55;15.45;;;12.50;;
25962;SDS011;13760;52.588;13.406;2023-05-15T05:37:20;17.38;;;12.80;;
25962;SDS011;13760;52.588;13.406;2023-05-15T05:39:46;18.98;;;13.00;;
25962;SDS011;13760;52.588;13.406;2023-05-15T05:42:11;14.38;;;11.48;;
25962;SDS011;13760;52.588;13.406;2023-05-15T05:44:37;16.17;;;11.98;;
25962;SDS011;13760;52.588;13.406;2023-05-15T05:47:02;15.73;;;11.23;;
25962;SDS011;13760;52.588;13.406;2023-05-15T05:49:28;19.17;;;11.00;;
25962;SDS011;13760;52.588;13.406;2023-05-15T05:51:53;11.82;;;10.48;;
25962;SDS011;13760;52.588;13.406;2023-05-15T05:54:19;19.85;;;12.50;;
25962;SDS011;13760;52.588;13.406;2023-05-15T05:56:44;19.35;;;11.77;;
25962;SDS011;13760;52.588;13.406;2023-05-15T05:59:10;25.70;;;12.75;;
25962;SDS011;13760;52.588;13.406;2023-05-15T06:01:35;27.75;;;12.93;;
25962;SDS011;13760;52.588;13.406;2023-05-15T06:04:01;27.70;;;12.85;;
25962;SDS011;13760;52.588;13.406;2023-05-15T06:06:27;18.95;;;10.98;;
25962;SDS011;13760;52.588;13.406;2023-05-15T06:08:52;26.13;;;11.57;;
25962;SDS011;13760;52.588;13.406;2023-05-15T06:11:18;24.75;;;11.30;;
25962;SDS011;13760;52.588;13.406;2023-05-15T06:13:43;31.55;;;12.18;;
25962;SDS011;13760;52.588;13.406;2023-05-15T06:16:09;26.10;;;12.40;;
25962;SDS011;13760;52.588;13.406;2023-05-15T06:18:35;28.15;;;12.25;;
25962;SDS011;13760;52.588;13.406;2023-05-15T06:21:00;26.63;;;12.85;;
25962;SDS011;13760;52.588;13.406;2023-05-15T06:23:26;30.48;;;12.02;;
25962;SDS011;13760;52.588;13.406;2023-05-15T06:25:51;23.70;;;13.38;;
25962;SDS011;13760;52.588;13.406;2023-05-15T06:28:17;21.48;;;13.25;;
25962;SDS011;13760;52.588;13.406;2023-05-15T06:30:42;22.67;;;13.23;;
25962;SDS011;13760;52.588;13.406;2023-05-15T06:33:08;22.02;;;11.40;;
25962;SDS011;13760;52.588;13.406;2023-05-15T06:35:33;20.83;;;12.48;;
25962;SDS011;13760;52.588;13.406;2023-05-15T06:37:59;19.58;;;12.63;;
25962;SDS011;13760;52.588;13.406;2023-05-15T06:40:25;23.63;;;11.32;;
25962;SDS011;13760;52.588;13.406;2023-05-15T06:42:51;19.40;;;11.13;;
25962;SDS011;13760;52.588;13.406;2023-05-15T06:45:16;25.25;;;11.95;;
25962;SDS011;13760;52.588;13.406;2023-05-15T06:47:42;32.67;;;11.68;;
25962;SDS011;13760;52.588;13.406;2023-05-15T06:50:08;23.10;;;11.80;;
25962;SDS011;13760;52.588;13.406;2023-05-15T06:52:34;22.02;;;10.68;;
25962;SDS011;13760;52.588;13.406;2023-05-15T06:54:59;15.93;;;11.10;;
25962;SDS011;13760;52.588;13.406;2023-05-15T06:57:25;13.80;;;11.18;;
25962;SDS011;13760;52.588;13.406;2023-05-15T06:59:50;21.65;;;11.05;;
25962;SDS011;13760;52.588;13.406;2023-05-15T07:02:16;19.55;;;11.15;;
25962;SDS011;13760;52.588;13.406;2023-05-15T07:04:42;16.30;;;10.52;;
25962;SDS011;13760;52.588;13.406;2023-05-15T07:07:07;24.38;;;11.88;;
25962;SDS011;13760;52.588;13.406;2023-05-15T07:09:32;14.73;;;10.77;;
25962;SDS011;13760;52.588;13.406;2023-05-15T07:11:59;18.25;;;10.82;;
25962;SDS011;13760;52.588;13.406;2023-05-15T07:14:24;25.13;;;10.65;;
25962;SDS011;13760;52.588;13.406;2023-05-15T07:16:50;17.23;;;9.77;;
25962;SDS011;13760;52.588;13.406;2023-05-15T07:19:16;15.15;;;8.80;;
25962;SDS011;13760;52.588;13.406;2023-05-15T07:21:44;16.73;;;9.57;;
25962;SDS011;13760;52.588;13.406;2023-05-15T07:24:10;23.75;;;8.93;;
25962;SDS011;13760;52.588;13.406;2023-05-15T07:26:35;20.88;;;9.65;;
25962;SDS011;13760;52.588;13.406;2023-05-15T07:29:01;18.80;;;9.55;;
25962;SDS011;13760;52.588;13.406;2023-05-15T07:31:27;18.02;;;8.27;;
25962;SDS011;13760;52.588;13.406;2023-05-15T07:33:55;16.40;;;8.57;;
25962;SDS011;13760;52.588;13.406;2023-05-15T07:36:20;22.48;;;9.00;;
25962;SDS011;13760;52.588;13.406;2023-05-15T07:38:46;19.27;;;7.88;;
25962;SDS011;13760;52.588;13.406;2023-05-15T07:41:11;16.13;;;7.57;;
25962;SDS011;13760;52.588;13.406;2023-05-15T07:43:37;13.40;;;8.05;;
25962;SDS011;13760;52.588;13.406;2023-05-15T07:46:05;16.42;;;8.13;;
25962;SDS011;13760;52.588;13.406;2023-05-15T07:48:31;16.85;;;8.00;;
25962;SDS011;13760;52.588;13.406;2023-05-15T07:50:56;11.43;;;8.18;;
25962;SDS011;13760;52.588;13.406;2023-05-15T07:53:22;15.27;;;7.43;;
25962;SDS011;13760;52.588;13.406;2023-05-15T07:55:47;13.75;;;7.55;;
25962;SDS011;13760;52.588;13.406;2023-05-15T07:58:13;13.73;;;7.35;;
25962;SDS011;13760;52.588;13.406;2023-05-15T08:00:38;17.13;;;7.55;;
25962;SDS011;13760;52.588;13.406;2023-05-15T08:03:04;11.43;;;7.43;;
25962;SDS011;13760;52.588;13.406;2023-05-15T08:05:30;16.83;;;8.35;;
25962;SDS011;13760;52.588;13.406;2023-05-15T08:07:55;12.90;;;7.18;;
25962;SDS011;13760;52.588;13.406;2023-05-15T08:10:21;14.23;;;7.53;;
25962;SDS011;13760;52.588;13.406;2023-05-15T08:12:47;12.82;;;7.63;;
25962;SDS011;13760;52.588;13.406;2023-05-15T08:15:14;18.10;;;8.43;;
25962;SDS011;13760;52.588;13.406;2023-05-15T08:17:41;21.45;;;8.18;;
25962;SDS011;13760;52.588;13.406;2023-05-15T08:20:10;20.35;;;8.43;;
25962;SDS011;13760;52.588;13.406;2023-05-15T08:22:39;14.80;;;7.68;;
25962;SDS011;13760;52.588;13.406;2023-05-15T08:25:04;14.02;;;7.38;;
25962;SDS011;13760;52.588;13.406;2023-05-15T08:27:31;11.18;;;7.30;;
25962;SDS011;13760;52.588;13.406;2023-05-15T08:29:57;19.25;;;8.30;;
25962;SDS011;13760;52.588;13.406;2023-05-15T08:32:24;13.55;;;7.63;;
25962;SDS011;13760;52.588;13.406;2023-05-15T08:34:51;16.33;;;7.40;;
25962;SDS011;13760;52.588;13.406;2023-05-15T08:37:17;21.70;;;8.15;;
25962;SDS011;13760;52.588;13.406;2023-05-15T08:39:46;14.30;;;7.85;;
25962;SDS011;13760;52.588;13.406;2023-05-15T08:45:06;18.23;;;7.78;;
25962;SDS011;13760;52.588;13.406;2023-05-15T08:47:33;12.38;;;7.18;;
25962;SDS011;13760;52.588;13.406;2023-05-15T08:50:06;12.75;;;7.70;;
25962;SDS011;13760;52.588;13.406;2023-05-15T08:52:36;11.85;;;6.97;;
25962;SDS011;13760;52.588;13.406;2023-05-15T08:55:02;9.98;;;7.05;;
25962;SDS011;13760;52.588;13.406;2023-05-15T08:57:28;8.15;;;6.40;;
25962;SDS011;13760;52.588;13.406;2023-05-15T08:59:55;11.25;;;6.88;;
25962;SDS011;13760;52.588;13.406;2023-05-15T09:02:21;13.95;;;6.40;;
25962;SDS011;13760;52.588;13.406;2023-05-15T09:04:49;12.65;;;6.50;;
25962;SDS011;13760;52.588;13.406;2023-05-15T09:07:14;10.35;;;6.10;;
25962;SDS011;13760;52.588;13.406;2023-05-15T09:09:41;13.43;;;6.13;;
25962;SDS011;13760;52.588;13.406;2023-05-15T09:12:09;9.43;;;6.40;;
25962;SDS011;13760;52.588;13.406;2023-05-15T09:14:38;10.43;;;6.00;;
25962;SDS011;13760;52.588;13.406;2023-05-15T09:17:03;14.77;;;5.82;;
25962;SDS011;13760;52.588;13.406;2023-05-15T09:19:30;10.20;;;6.30;;
25962;SDS011;13760;52.588;13.406;2023-05-15T09:22:12;10.68;;;5.90;;
25962;SDS011;13760;52.588;13.406;2023-05-15T09:24:40;9.55;;;6.32;;
25962;SDS011;13760;52.588;13.406;2023-05-15T09:27:07;9.50;;;6.75;;
25962;SDS011;13760;52.588;13.406;2023-05-15T09:29:34;9.32;;;6.10;;
25962;SDS011;13760;52.588;13.406;2023-05-15T09:32:02;9.15;;;5.40;;
25962;SDS011;13760;52.588;13.406;2023-05-15T09:34:39;13.00;;;5.95;;
25962;SDS011;13760;52.588;13.406;2023-05-15T09:37:11;7.22;;;5.20;;
25962;SDS011;13760;52.588;13.406;2023-05-15T09:39:52;11.77;;;5.53;;
25962;SDS011;13760;52.588;13.406;2023-05-15T09:42:17;13.20;;;5.78;;
25962;SDS011;13760;52.588;13.406;2023-05-15T09:44:43;8.55;;;5.30;;
25962;SDS011;13760;52.588;13.406;2023-05-15T09:47:11;12.57;;;5.28;;
25962;SDS011;13760;52.588;13.406;2023-05-15T09:49:37;11.13;;;4.93;;
25962;SDS011;13760;52.588;13.406;2023-05-15T09:52:06;9.70;;;4.93;;
25962;SDS011;13760;52.588;13.406;2023-05-15T09:54:33;5.82;;;4.68;;
25962;SDS011;13760;52.588;13.406;2023-05-15T09:57:07;9.25;;;4.95;;
25962;SDS011;13760;52.588;13.406;2023-05-15T09:59:34;8.88;;;4.97;;
25962;SDS011;13760;52.588;13.406;2023-05-15T10:02:00;9.75;;;5.25;;
25962;SDS011;13760;52.588;13.406;2023-05-15T10:04:25;11.82;;;5.10;;
25962;SDS011;13760;52.588;13.406;2023-05-15T10:06:51;9.68;;;5.03;;
25962;SDS011;13760;52.588;13.406;2023-05-15T10:09:17;10.70;;;4.63;;
25962;SDS011;13760;52.588;13.406;2023-05-15T10:11:43;8.90;;;5.30;;
25962;SDS011;13760;52.588;13.406;2023-05-15T10:14:11;7.53;;;5.45;;
25962;SDS011;13760;52.588;13.406;2023-05-15T10:16:38;10.15;;;4.72;;
25962;SDS011;13760;52.588;13.406;2023-05-15T10:19:05;8.63;;;5.32;;
25962;SDS011;13760;52.588;13.406;2023-05-15T10:21:33;11.20;;;5.28;;
25962;SDS011;13760;52.588;13.406;2023-05-15T10:24:03;8.93;;;5.53;;
25962;SDS011;13760;52.588;13.406;2023-05-15T10:26:37;8.82;;;5.50;;
25962;SDS011;13760;52.588;13.406;2023-05-15T10:29:10;8.43;;;5.63;;
25962;SDS011;13760;52.588;13.406;2023-05-15T10:31:40;9.10;;;5.25;;
25962;SDS011;13760;52.588;13.406;2023-05-15T10:34:06;6.13;;;4.50;;
25962;SDS011;13760;52.588;13.406;2023-05-15T10:36:34;10.52;;;4.22;;
25962;SDS011;13760;52.588;13.406;2023-05-15T10:39:01;7.57;;;4.85;;
25962;SDS011;13760;52.588;13.406;2023-05-15T10:41:28;5.97;;;4.55;;
25962;SDS011;13760;52.588;13.406;2023-05-15T10:43:57;5.05;;;4.13;;
25962;SDS011;13760;52.588;13.406;2023-05-15T10:46:23;4.90;;;4.13;;
25962;SDS011;13760;52.588;13.406;2023-05-15T10:48:50;7.22;;;4.18;;
25962;SDS011;13760;52.588;13.406;2023-05-15T10:51:16;4.95;;;3.60;;
25962;SDS011;13760;52.588;13.406;2023-05-15T10:53:48;3.58;;;3.28;;
25962;SDS011;13760;52.588;13.406;2023-05-15T10:56:15;4.47;;;3.00;;
25962;SDS011;13760;52.588;13.406;2023-05-15T10:58:50;4.68;;;2.90;;
25962;SDS011;13760;52.588;13.406;2023-05-15T11:01:24;4.05;;;3.03;;
25962;SDS011;13760;52.588;13.406;2023-05-15T11:04:13;4.03;;;3.13;;
25962;SDS011;13760;52.588;13.406;2023-05-15T11:06:46;2.70;;;2.50;;
25962;SDS011;13760;52.588;13.406;2023-05-15T11:11:54;4.13;;;3.13;;
25962;SDS011;13760;52.588;13.406;2023-05-15T11:17:15;4.50;;;3.40;;
25962;SDS011;13760;52.588;13.406;2023-05-15T11:27:18;5.13;;;3.60;;
25962;SDS011;13760;52.588;13.406;2023-05-15T11:32:39;7.63;;;4.60;;
25962;SDS011;13760;52.588;13.406;2023-05-15T11:35:12;6.53;;;4.10;;
25962;SDS011;13760;52.588;13.406;2023-05-15T11:37:48;8.00;;;4.32;;
25962;SDS011;13760;52.588;13.406;2023-05-15T11:40:23;7.55;;;4.53;;
25962;SDS011;13760;52.588;13.406;2023-05-15T11:42:59;5.55;;;4.40;;
25962;SDS011;13760;52.588;13.406;2023-05-15T11:45:26;12.18;;;5.22;;
25962;SDS011;13760;52.588;13.406;2023-05-15T11:47:53;9.38;;;4.80;;
25962;SDS011;13760;52.588;13.406;2023-05-15T11:50:19;5.25;;;3.90;;
25962;SDS011;13760;52.588;13.406;2023-05-15T11:52:45;7.00;;;4.18;;
25962;SDS011;13760;52.588;13.406;2023-05-15T11:55:12;4.13;;;3.72;;
25962;SDS011;13760;52.588;13.406;2023-05-15T11:57:40;4.10;;;3.00;;
25962;SDS011;13760;52.588;13.406;2023-05-15T12:00:05;6.72;;;3.20;;
25962;SDS011;13760;52.588;13.406;2023-05-15T12:02:33;8.77;;;5.55;;
25962;SDS011;13760;52.588;13.406;2023-05-15T12:04:58;5.32;;;3.88;;
25962;SDS011;13760;52.588;13.406;2023-05-15T12:07:24;5.97;;;3.58;;
25962;SDS011;13760;52.588;13.406;2023-05-15T12:09:50;4.10;;;3.05;;
25962;SDS011;13760;52.588;13.406;2023-05-15T12:12:16;3.90;;;2.17;;
25962;SDS011;13760;52.588;13.406;2023-05-15T12:14:42;3.20;;;2.90;;
25962;SDS011;13760;52.588;13.406;2023-05-15T12:17:07;6.20;;;3.15;;
25962;SDS011;13760;52.588;13.406;2023-05-15T12:19:33;4.30;;;2.80;;
25962;SDS011;13760;52.588;13.406;2023-05-15T12:21:59;6.18;;;3.58;;
25962;SDS011;13760;52.588;13.406;2023-05-15T12:24:25;3.30;;;2.33;;
25962;SDS011;13760;52.588;13.406;2023-05-15T12:26:51;5.32;;;3.03;;
25962;SDS011;13760;52.588;13.406;2023-05-15T12:29:17;6.03;;;3.15;;
25962;SDS011;13760;52.588;13.406;2023-05-15T12:31:42;4.90;;;2.60;;
25962;SDS011;13760;52.588;13.406;2023-05-15T12:34:08;5.10;;;3.20;;
25962;SDS011;13760;52.588;13.406;2023-05-15T12:36:34;6.00;;;3.13;;
25962;SDS011;13760;52.588;13.406;2023-05-15T12:39:03;4.57;;;3.10;;
25962;SDS011;13760;52.588;13.406;2023-05-15T12:41:30;5.80;;;3.60;;
25962;SDS011;13760;52.588;13.406;2023-05-15T12:43:56;5.10;;;3.70;;
25962;SDS011;13760;52.588;13.406;2023-05-15T12:46:22;6.03;;;3.30;;
25962;SDS011;13760;52.588;13.406;2023-05-15T12:48:50;6.80;;;3.03;;
25962;SDS011;13760;52.588;13.406;2023-05-15T12:51:16;4.10;;;2.95;;
25962;SDS011;13760;52.588;13.406;2023-05-15T12:53:41;5.40;;;2.95;;
25962;SDS011;13760;52.588;13.406;2023-05-15T12:56:08;8.60;;;2.88;;
25962;SDS011;13760;52.588;13.406;2023-05-15T12:58:33;7.93;;;2.83;;
25962;SDS011;13760;52.588;13.406;2023-05-15T13:00:59;7.97;;;2.70;;
25962;SDS011;13760;52.588;13.406;2023-05-15T13:03:27;4.32;;;2.10;;
25962;SDS011;13760;52.588;13.406;2023-05-15T13:05:53;5.07;;;2.47;;
25962;SDS011;13760;52.588;13.406;2023-05-15T13:08:19;4.18;;;2.45;;
25962;SDS011;13760;52.588;13.406;2023-05-15T13:10:45;4.68;;;2.60;;
25962;SDS011;13760;52.588;13.406;2023-05-15T13:13:11;4.13;;;2.42;;
25962;SDS011;13760;52.588;13.406;2023-05-15T13:15:38;4.82;;;2.65;;
25962;SDS011;13760;52.588;13.406;2023-05-15T13:18:07;3.53;;;2.05;;
25962;SDS011;13760;52.588;13.406;2023-05-15T13:20:43;4.88;;;2.20;;
25962;SDS011;13760;52.588;13.406;2023-05-15T13:23:11;6.60;;;2.40;;
25962;SDS011;13760;52.588;13.406;2023-05-15T13:25:39;13.50;;;2.50;;
25962;SDS011;13760;52.588;13.406;2023-05-15T13:28:05;9.60;;;1.90;;
25962;SDS011;13760;52.588;13.406;2023-05-15T13:30:32;13.55;;;2.08;;
25962;SDS011;13760;52.588;13.406;2023-05-15T13:32:58;7.40;;;1.70;;
25962;SDS011;13760;52.588;13.406;2023-05-15T13:35:24;8.15;;;1.67;;
25962;SDS011;13760;52.588;13.406;2023-05-15T13:37:50;4.88;;;1.45;;
25962;SDS011;13760;52.588;13.406;2023-05-15T13:40:16;19.95;;;2.35;;
25962;SDS011;13760;52.588;13.406;2023-05-15T13:42:42;9.82;;;1.75;;
25962;SDS011;13760;52.588;13.406;2023-05-15T13:45:09;2.75;;;1.33;;
25962;SDS011;13760;52.588;13.406;2023-05-15T13:47:39;5.18;;;1.30;;
25962;SDS011;13760;52.588;13.406;2023-05-15T13:50:08;1.73;;;1.48;;
25962;SDS011;13760;52.588;13.406;2023-05-15T13:52:36;1.67;;;1.38;;
25962;SDS011;13760;52.588;13.406;2023-05-15T13:55:02;8.75;;;1.70;;
25962;SDS011;13760;52.588;13.406;2023-05-15T14:00:00;3.63;;;1.70;;
25962;SDS011;13760;52.588;13.406;2023-05-15T14:02:25;2.40;;;2.20;;
25962;SDS011;13760;52.588;13.406;2023-05-15T14:04:52;2.55;;;2.10;;
25962;SDS011;13760;52.588;13.406;2023-05-15T14:07:20;3.40;;;1.95;;
25962;SDS011;13760;52.588;13.406;2023-05-15T14:09:46;10.07;;;2.15;;
25962;SDS011;13760;52.588;13.406;2023-05-15T14:12:12;4.55;;;2.30;;
25962;SDS011;13760;52.588;13.406;2023-05-15T14:14:37;2.90;;;2.30;;
25962;SDS011;13760;52.588;13.406;2023-05-15T14:17:03;5.75;;;2.72;;
25962;SDS011;13760;52.588;13.406;2023-05-15T14:19:29;5.38;;;2.63;;
25962;SDS011;13760;52.588;13.406;2023-05-15T14:21:54;4.68;;;2.47;;
25962;SDS011;13760;52.588;13.406;2023-05-15T14:24:20;5.50;;;2.70;;
25962;SDS011;13760;52.588;13.406;2023-05-15T14:26:45;4.32;;;2.90;;
25962;SDS011;13760;52.588;13.406;2023-05-15T14:29:11;3.30;;;2.60;;
25962;SDS011;13760;52.588;13.406;2023-05-15T14:31:36;5.10;;;2.60;;
25962;SDS011;13760;52.588;13.406;2023-05-15T14:34:02;4.60;;;2.70;;
25962;SDS011;13760;52.588;13.406;2023-05-15T14:36:29;4.20;;;2.30;;
25962;SDS011;13760;52.588;13.406;2023-05-15T14:38:55;2.78;;;2.40;;
25962;SDS011;13760;52.588;13.406;2023-05-15T14:41:20;4.50;;;2.40;;
25962;SDS011;13760;52.588;13.406;2023-05-15T14:43:46;3.53;;;2.30;;
25962;SDS011;13760;52.588;13.406;2023-05-15T14:46:11;2.67;;;2.45;;
25962;SDS011;13760;52.588;13.406;2023-05-15T14:48:37;3.30;;;2.67;;
25962;SDS011;13760;52.588;13.406;2023-05-15T14:51:02;2.97;;;2.28;;